sensor_id;sensor_type;location;lat;lon;timestamp;pressure;altitude;pressure_sealevel;temperature;humidity
33781;BME280;20097;50.832;19.100;2023-07-08T00:00:58;98914.25;;;13.50;100.00
33781;BME280;20097;50.832;19.100;2023-07-08T00:06:04;98905.63;;;13.42;100.00
33781;BME280;20097;50.832;19.100;2023-07-08T00:11:14;98913.88;;;13.39;100.00
33781;BME280;20097;50.832;19.100;2023-07-08T00:16:19;98918.16;;;13.32;100.00
33781;BME280;20097;50.832;19.100;2023-07-08T00:21:25;98925.78;;;13.27;100.00
33781;BME280;20097;50.832;19.100;2023-07-08T00:26:31;98926.63;;;13.19;100.00
33781;BME280;20097;50.832;19.100;2023-07-08T00:31:35;98919.59;;;13.20;100.00
33781;BME280;20097;50.832;19.100;2023-07-08T00:36:41;98919.41;;;13.21;100.00
33781;BME280;20097;50.832;19.100;2023-07-08T00:41:47;98915.69;;;13.16;100.00
33781;BME280;20097;50.832;19.100;2023-07-08T00:47:00;98911.13;;;13.10;100.00
33781;BME280;20097;50.832;19.100;2023-07-08T00:52:20;98904.28;;;13.09;100.00
33781;BME280;20097;50.832;19.100;2023-07-08T00:57:29;98898.91;;;13.02;100.00
33781;BME280;20097;50.832;19.100;2023-07-08T01:02:40;98906.28;;;12.99;100.00
33781;BME280;20097;50.832;19.100;2023-07-08T01:07:51;98899.44;;;12.90;100.00
33781;BME280;20097;50.832;19.100;2023-07-08T01:13:00;98898.66;;;12.89;100.00
33781;BME280;20097;50.832;19.100;2023-07-08T01:18:13;98895.53;;;12.86;100.00
33781;BME280;20097;50.832;19.100;2023-07-08T01:23:21;98898.34;;;12.84;100.00
33781;BME280;20097;50.832;19.100;2023-07-08T01:28:26;98893.63;;;12.80;100.00
33781;BME280;20097;50.832;19.100;2023-07-08T01:33:31;98896.88;;;12.82;100.00
33781;BME280;20097;50.832;19.100;2023-07-08T01:38:39;98894.91;;;12.84;100.00
33781;BME280;20097;50.832;19.100;2023-07-08T01:43:44;98894.72;;;12.85;100.00
33781;BME280;20097;50.832;19.100;2023-07-08T01:48:53;98890.00;;;12.81;100.00
33781;BME280;20097;50.832;19.100;2023-07-08T01:53:59;98882.97;;;12.81;100.00
33781;BME280;20097;50.832;19.100;2023-07-08T01:59:04;98885.13;;;12.78;100.00
33781;BME280;20097;50.832;19.100;2023-07-08T02:04:08;98883.81;;;12.74;100.00
33781;BME280;20097;50.832;19.100;2023-07-08T02:09:16;98888.25;;;12.73;100.00
33781;BME280;20097;50.832;19.100;2023-07-08T02:14:20;98894.34;;;12.66;100.00
33781;BME280;20097;50.832;19.100;2023-07-08T02:19:27;98889.88;;;12.74;100.00
33781;BME280;20097;50.832;19.100;2023-07-08T02:24:33;98892.16;;;12.77;100.00
33781;BME280;20097;50.832;19.100;2023-07-08T02:29:37;98877.91;;;12.80;100.00
33781;BME280;20097;50.832;19.100;2023-07-08T02:34:42;98889.34;;;12.79;100.00
33781;BME280;20097;50.832;19.100;2023-07-08T02:39:48;98893.81;;;12.70;100.00
33781;BME280;20097;50.832;19.100;2023-07-08T02:44:53;98887.84;;;12.62;100.00
33781;BME280;20097;50.832;19.100;2023-07-08T02:49:57;98894.75;;;12.55;100.00
33781;BME280;20097;50.832;19.100;2023-07-08T02:55:04;98900.97;;;12.54;100.00
33781;BME280;20097;50.832;19.100;2023-07-08T03:00:11;98895.09;;;12.52;100.00
33781;BME280;20097;50.832;19.100;2023-07-08T03:05:16;98901.75;;;12.54;100.00
33781;BME280;20097;50.832;19.100;2023-07-08T03:10:22;98909.97;;;12.51;100.00
33781;BME280;20097;50.832;19.100;2023-07-08T03:15:27;98913.75;;;12.49;100.00
33781;BME280;20097;50.832;19.100;2023-07-08T03:20:31;98917.50;;;12.46;100.00
33781;BME280;20097;50.832;19.100;2023-07-08T03:25:38;98911.75;;;12.51;100.00
33781;BME280;20097;50.832;19.100;2023-07-08T03:30:44;98917.13;;;12.57;100.00
33781;BME280;20097;50.832;19.100;2023-07-08T03:35:49;98915.47;;;12.64;100.00
33781;BME280;20097;50.832;19.100;2023-07-08T03:40:55;98911.66;;;12.75;100.00
33781;BME280;20097;50.832;19.100;2023-07-08T03:45:59;98910.91;;;12.89;100.00
33781;BME280;20097;50.832;19.100;2023-07-08T03:51:04;98904.47;;;12.99;100.00
33781;BME280;20097;50.832;19.100;2023-07-08T03:56:12;98902.13;;;13.12;100.00
33781;BME280;20097;50.832;19.100;2023-07-08T04:01:20;98896.94;;;13.27;100.00
33781;BME280;20097;50.832;19.100;2023-07-08T04:06:27;98899.25;;;13.44;100.00
33781;BME280;20097;50.832;19.100;2023-07-08T04:11:34;98891.06;;;13.62;100.00
33781;BME280;20097;50.832;19.100;2023-07-08T04:16:46;98898.88;;;13.85;100.00
33781;BME280;20097;50.832;19.100;2023-07-08T04:21:52;98897.53;;;14.03;100.00
33781;BME280;20097;50.832;19.100;2023-07-08T04:26:58;98895.63;;;14.26;100.00
33781;BME280;20097;50.832;19.100;2023-07-08T04:32:04;98894.72;;;14.48;100.00
33781;BME280;20097;50.832;19.100;2023-07-08T04:37:11;98897.22;;;14.71;100.00
33781;BME280;20097;50.832;19.100;2023-07-08T04:42:17;98887.38;;;14.94;100.00
33781;BME280;20097;50.832;19.100;2023-07-08T04:47:22;98893.47;;;15.16;100.00
33781;BME280;20097;50.832;19.100;2023-07-08T04:52:26;98894.06;;;15.39;100.00
33781;BME280;20097;50.832;19.100;2023-07-08T04:57:32;98884.97;;;15.62;100.00
33781;BME280;20097;50.832;19.100;2023-07-08T05:02:37;98894.88;;;15.88;100.00
33781;BME280;20097;50.832;19.100;2023-07-08T05:07:42;98891.19;;;16.10;100.00
33781;BME280;20097;50.832;19.100;2023-07-08T05:12:48;98892.31;;;16.35;100.00
33781;BME280;20097;50.832;19.100;2023-07-08T05:17:53;98897.31;;;16.58;100.00
33781;BME280;20097;50.832;19.100;2023-07-08T05:22:57;98893.34;;;16.81;100.00
33781;BME280;20097;50.832;19.100;2023-07-08T05:28:03;98890.16;;;17.12;100.00
33781;BME280;20097;50.832;19.100;2023-07-08T05:33:08;98893.47;;;17.40;100.00
33781;BME280;20097;50.832;19.100;2023-07-08T05:38:13;98888.38;;;17.71;100.00
33781;BME280;20097;50.832;19.100;2023-07-08T05:43:19;98905.63;;;18.00;100.00
33781;BME280;20097;50.832;19.100;2023-07-08T05:48:23;98902.72;;;18.27;95.65
33781;BME280;20097;50.832;19.100;2023-07-08T05:53:27;98898.78;;;18.56;91.33
33781;BME280;20097;50.832;19.100;2023-07-08T05:58:34;98900.31;;;18.83;85.03
33781;BME280;20097;50.832;19.100;2023-07-08T06:03:39;98901.56;;;19.11;82.02
33781;BME280;20097;50.832;19.100;2023-07-08T06:08:43;98905.69;;;19.39;78.39
33781;BME280;20097;50.832;19.100;2023-07-08T06:13:49;98916.03;;;19.71;80.76
33781;BME280;20097;50.832;19.100;2023-07-08T06:18:55;98915.34;;;20.00;73.22
33781;BME280;20097;50.832;19.100;2023-07-08T06:24:00;98910.88;;;20.25;66.43
33781;BME280;20097;50.832;19.100;2023-07-08T06:29:05;98908.50;;;20.54;68.33
33781;BME280;20097;50.832;19.100;2023-07-08T06:34:10;98912.59;;;20.86;67.12
33781;BME280;20097;50.832;19.100;2023-07-08T06:39:14;98917.22;;;21.08;66.46
33781;BME280;20097;50.832;19.100;2023-07-08T06:44:21;98922.03;;;21.29;63.97
33781;BME280;20097;50.832;19.100;2023-07-08T06:49:25;98927.53;;;21.57;63.78
33781;BME280;20097;50.832;19.100;2023-07-08T06:54:29;98933.34;;;21.89;61.01
33781;BME280;20097;50.832;19.100;2023-07-08T06:59:35;98924.25;;;22.08;60.09
33781;BME280;20097;50.832;19.100;2023-07-08T07:04:41;98928.38;;;22.27;58.70
33781;BME280;20097;50.832;19.100;2023-07-08T07:09:45;98924.53;;;22.46;57.11
33781;BME280;20097;50.832;19.100;2023-07-08T07:14:51;98932.63;;;22.74;54.71
33781;BME280;20097;50.832;19.100;2023-07-08T07:19:56;98932.44;;;22.92;54.39
33781;BME280;20097;50.832;19.100;2023-07-08T07:25:01;98925.41;;;23.15;54.40
33781;BME280;20097;50.832;19.100;2023-07-08T07:30:08;98944.13;;;23.20;51.39
33781;BME280;20097;50.832;19.100;2023-07-08T07:35:16;98933.06;;;23.39;52.96
33781;BME280;20097;50.832;19.100;2023-07-08T07:40:20;98947.00;;;23.58;49.65
33781;BME280;20097;50.832;19.100;2023-07-08T07:45:26;98920.72;;;23.83;53.76
33781;BME280;20097;50.832;19.100;2023-07-08T07:50:30;98942.97;;;23.88;50.56
33781;BME280;20097;50.832;19.100;2023-07-08T07:55:35;98936.91;;;23.93;50.28
33781;BME280;20097;50.832;19.100;2023-07-08T08:00:41;98948.41;;;24.10;47.65
33781;BME280;20097;50.832;19.100;2023-07-08T08:05:46;98945.22;;;24.29;47.56
33781;BME280;20097;50.832;19.100;2023-07-08T08:10:51;98943.56;;;24.45;48.89
33781;BME280;20097;50.832;19.100;2023-07-08T08:16:00;98958.06;;;24.54;46.58
33781;BME280;20097;50.832;19.100;2023-07-08T08:21:05;98960.09;;;24.64;44.22
33781;BME280;20097;50.832;19.100;2023-07-08T08:26:10;98965.63;;;24.57;44.24
33781;BME280;20097;50.832;19.100;2023-07-08T08:31:16;98968.44;;;24.67;42.92
33781;BME280;20097;50.832;19.100;2023-07-08T08:36:20;98968.69;;;24.87;43.65
33781;BME280;20097;50.832;19.100;2023-07-08T08:41:30;98967.59;;;24.83;43.22
33781;BME280;20097;50.832;19.100;2023-07-08T08:46:41;98953.22;;;24.89;44.51
33781;BME280;20097;50.832;19.100;2023-07-08T08:51:50;98955.72;;;24.96;43.14
33781;BME280;20097;50.832;19.100;2023-07-08T08:57:00;98951.94;;;25.18;44.87
33781;BME280;20097;50.832;19.100;2023-07-08T09:02:41;98960.34;;;25.05;42.67
33781;BME280;20097;50.832;19.100;2023-07-08T09:07:59;98967.94;;;25.35;42.48
33781;BME280;20097;50.832;19.100;2023-07-08T09:13:05;98956.31;;;25.51;42.09
33781;BME280;20097;50.832;19.100;2023-07-08T09:18:20;98964.81;;;25.75;42.81
33781;BME280;20097;50.832;19.100;2023-07-08T09:23:32;98959.59;;;25.58;40.47
33781;BME280;20097;50.832;19.100;2023-07-08T09:28:42;98959.03;;;25.88;40.78
33781;BME280;20097;50.832;19.100;2023-07-08T09:33:51;98946.25;;;25.95;41.92
33781;BME280;20097;50.832;19.100;2023-07-08T09:38:55;98945.66;;;26.19;40.71
33781;BME280;20097;50.832;19.100;2023-07-08T09:44:06;98943.81;;;26.30;42.27
33781;BME280;20097;50.832;19.100;2023-07-08T09:49:21;98933.19;;;26.40;41.37
33781;BME280;20097;50.832;19.100;2023-07-08T09:54:26;98938.28;;;26.41;40.69
33781;BME280;20097;50.832;19.100;2023-07-08T09:59:39;98936.25;;;26.63;41.76
33781;BME280;20097;50.832;19.100;2023-07-08T10:04:54;98933.69;;;26.78;41.03
33781;BME280;20097;50.832;19.100;2023-07-08T10:10:06;98929.97;;;26.89;40.66
33781;BME280;20097;50.832;19.100;2023-07-08T10:15:18;98921.66;;;26.86;40.16
33781;BME280;20097;50.832;19.100;2023-07-08T10:20:39;98926.50;;;26.94;39.91
33781;BME280;20097;50.832;19.100;2023-07-08T10:25:57;98910.16;;;27.01;39.94
33781;BME280;20097;50.832;19.100;2023-07-08T10:31:22;98923.84;;;27.04;39.28
33781;BME280;20097;50.832;19.100;2023-07-08T10:36:43;98924.91;;;27.08;39.89
33781;BME280;20097;50.832;19.100;2023-07-08T10:42:00;98913.59;;;26.86;39.31
33781;BME280;20097;50.832;19.100;2023-07-08T10:47:23;98915.56;;;27.11;39.11
33781;BME280;20097;50.832;19.100;2023-07-08T10:52:51;98912.13;;;27.45;36.98
33781;BME280;20097;50.832;19.100;2023-07-08T11:04:07;98910.00;;;27.77;38.11
33781;BME280;20097;50.832;19.100;2023-07-08T11:09:26;98890.41;;;27.82;38.26
33781;BME280;20097;50.832;19.100;2023-07-08T11:14:40;98886.88;;;28.27;37.67
33781;BME280;20097;50.832;19.100;2023-07-08T11:19:50;98889.00;;;28.93;37.67
33781;BME280;20097;50.832;19.100;2023-07-08T11:25:01;98884.47;;;29.32;40.33
33781;BME280;20097;50.832;19.100;2023-07-08T11:30:14;98896.97;;;29.13;35.90
33781;BME280;20097;50.832;19.100;2023-07-08T11:35:32;98897.56;;;29.44;36.52
33781;BME280;20097;50.832;19.100;2023-07-08T11:40:54;98892.44;;;29.47;35.15
33781;BME280;20097;50.832;19.100;2023-07-08T11:46:05;98896.34;;;29.65;35.28
33781;BME280;20097;50.832;19.100;2023-07-08T11:51:18;98893.94;;;29.25;34.21
33781;BME280;20097;50.832;19.100;2023-07-08T11:56:26;98894.28;;;29.86;36.39
33781;BME280;20097;50.832;19.100;2023-07-08T12:01:39;98881.97;;;30.55;35.46
33781;BME280;20097;50.832;19.100;2023-07-08T12:06:47;98885.75;;;30.54;34.49
33781;BME280;20097;50.832;19.100;2023-07-08T12:11:58;98894.78;;;29.88;32.50
33781;BME280;20097;50.832;19.100;2023-07-08T12:17:09;98877.00;;;30.44;35.09
33781;BME280;20097;50.832;19.100;2023-07-08T12:22:15;98871.84;;;30.66;36.00
33781;BME280;20097;50.832;19.100;2023-07-08T12:27:23;98857.81;;;31.25;37.03
33781;BME280;20097;50.832;19.100;2023-07-08T12:32:27;98869.63;;;31.47;34.09
33781;BME280;20097;50.832;19.100;2023-07-08T12:37:32;98871.63;;;31.42;33.37
33781;BME280;20097;50.832;19.100;2023-07-08T12:42:38;98856.91;;;31.80;33.90
33781;BME280;20097;50.832;19.100;2023-07-08T12:47:48;98865.47;;;32.14;33.20
33781;BME280;20097;50.832;19.100;2023-07-08T12:52:53;98861.81;;;31.78;31.82
33781;BME280;20097;50.832;19.100;2023-07-08T12:57:59;98848.47;;;32.27;33.21
33781;BME280;20097;50.832;19.100;2023-07-08T13:03:07;98853.28;;;32.30;33.36
33781;BME280;20097;50.832;19.100;2023-07-08T13:08:12;98842.50;;;32.44;34.14
33781;BME280;20097;50.832;19.100;2023-07-08T13:13:21;98835.97;;;33.07;34.66
33781;BME280;20097;50.832;19.100;2023-07-08T13:18:32;98839.28;;;33.26;33.61
33781;BME280;20097;50.832;19.100;2023-07-08T13:23:37;98828.78;;;33.47;33.05
33781;BME280;20097;50.832;19.100;2023-07-08T13:28:43;98845.56;;;33.58;32.39
33781;BME280;20097;50.832;19.100;2023-07-08T13:33:52;98834.03;;;33.44;32.16
33781;BME280;20097;50.832;19.100;2023-07-08T13:38:57;98825.91;;;34.05;32.66
33781;BME280;20097;50.832;19.100;2023-07-08T13:44:07;98827.94;;;34.30;30.71
33781;BME280;20097;50.832;19.100;2023-07-08T13:49:15;98829.50;;;34.31;30.65
33781;BME280;20097;50.832;19.100;2023-07-08T13:54:27;98829.75;;;34.60;30.84
33781;BME280;20097;50.832;19.100;2023-07-08T13:59:37;98821.47;;;34.65;31.57
33781;BME280;20097;50.832;19.100;2023-07-08T14:04:42;98810.97;;;34.72;32.98
33781;BME280;20097;50.832;19.100;2023-07-08T14:09:47;98831.41;;;34.95;29.70
33781;BME280;20097;50.832;19.100;2023-07-08T14:14:54;98831.84;;;34.63;27.74
33781;BME280;20097;50.832;19.100;2023-07-08T14:19:59;98824.94;;;34.40;27.99
33781;BME280;20097;50.832;19.100;2023-07-08T14:25:08;98822.66;;;34.25;28.76
33781;BME280;20097;50.832;19.100;2023-07-08T14:30:14;98830.06;;;34.02;27.05
33781;BME280;20097;50.832;19.100;2023-07-08T14:35:23;98813.81;;;33.80;28.28
33781;BME280;20097;50.832;19.100;2023-07-08T14:40:33;98805.84;;;34.62;29.03
33781;BME280;20097;50.832;19.100;2023-07-08T14:45:43;98809.19;;;34.85;28.17
33781;BME280;20097;50.832;19.100;2023-07-08T14:50:49;98809.25;;;35.73;27.62
33781;BME280;20097;50.832;19.100;2023-07-08T14:55:55;98789.25;;;35.23;29.57
33781;BME280;20097;50.832;19.100;2023-07-08T15:01:12;98789.56;;;35.13;27.85
33781;BME280;20097;50.832;19.100;2023-07-08T15:06:20;98792.69;;;35.66;27.71
33781;BME280;20097;50.832;19.100;2023-07-08T15:11:25;98785.28;;;35.12;28.59
33781;BME280;20097;50.832;19.100;2023-07-08T15:16:31;98785.16;;;35.63;29.24
33781;BME280;20097;50.832;19.100;2023-07-08T15:21:35;98786.38;;;35.45;28.41
33781;BME280;20097;50.832;19.100;2023-07-08T15:26:42;98786.41;;;34.94;27.50
33781;BME280;20097;50.832;19.100;2023-07-08T15:31:48;98782.88;;;34.85;28.91
33781;BME280;20097;50.832;19.100;2023-07-08T15:36:53;98784.16;;;35.76;27.72
33781;BME280;20097;50.832;19.100;2023-07-08T15:41:57;98784.28;;;35.97;26.83
33781;BME280;20097;50.832;19.100;2023-07-08T15:47:04;98782.25;;;35.77;26.19
33781;BME280;20097;50.832;19.100;2023-07-08T15:52:09;98783.16;;;35.43;26.57
33781;BME280;20097;50.832;19.100;2023-07-08T15:57:14;98763.94;;;34.12;27.58
33781;BME280;20097;50.832;19.100;2023-07-08T16:02:27;98763.63;;;32.15;29.28
33781;BME280;20097;50.832;19.100;2023-07-08T16:07:33;98758.00;;;31.70;30.68
33781;BME280;20097;50.832;19.100;2023-07-08T16:12:37;98757.06;;;30.65;31.34
33781;BME280;20097;50.832;19.100;2023-07-08T16:17:44;98746.91;;;30.20;31.38
33781;BME280;20097;50.832;19.100;2023-07-08T16:22:49;98747.72;;;29.97;29.47
33781;BME280;20097;50.832;19.100;2023-07-08T16:27:54;98736.91;;;29.49;33.28
33781;BME280;20097;50.832;19.100;2023-07-08T16:33:01;98734.66;;;29.33;32.30
33781;BME280;20097;50.832;19.100;2023-07-08T16:38:05;98734.91;;;29.08;32.06
33781;BME280;20097;50.832;19.100;2023-07-08T16:43:29;98726.47;;;28.81;33.12
33781;BME280;20097;50.832;19.100;2023-07-08T16:48:35;98728.69;;;28.25;33.22
33781;BME280;20097;50.832;19.100;2023-07-08T16:53:41;98734.34;;;28.23;32.63
33781;BME280;20097;50.832;19.100;2023-07-08T16:58:46;98729.00;;;28.18;32.78
33781;BME280;20097;50.832;19.100;2023-07-08T17:03:53;98722.38;;;28.01;33.98
33781;BME280;20097;50.832;19.100;2023-07-08T17:09:00;98701.88;;;27.56;39.07
33781;BME280;20097;50.832;19.100;2023-07-08T17:14:08;98695.50;;;27.27;40.02
33781;BME280;20097;50.832;19.100;2023-07-08T17:19:17;98681.00;;;26.58;44.36
33781;BME280;20097;50.832;19.100;2023-07-08T17:24:21;98669.22;;;26.34;44.31
33781;BME280;20097;50.832;19.100;2023-07-08T17:29:27;98666.22;;;26.05;44.19
33781;BME280;20097;50.832;19.100;2023-07-08T17:34:32;98671.78;;;25.94;41.88
33781;BME280;20097;50.832;19.100;2023-07-08T17:39:39;98662.94;;;25.93;43.30
33781;BME280;20097;50.832;19.100;2023-07-08T17:44:43;98649.44;;;25.53;46.11
33781;BME280;20097;50.832;19.100;2023-07-08T17:49:49;98632.63;;;25.21;47.74
33781;BME280;20097;50.832;19.100;2023-07-08T17:54:54;98627.13;;;24.59;48.78
33781;BME280;20097;50.832;19.100;2023-07-08T17:59:58;98632.53;;;24.06;50.07
33781;BME280;20097;50.832;19.100;2023-07-08T18:05:11;98631.38;;;23.75;51.27
33781;BME280;20097;50.832;19.100;2023-07-08T18:10:18;98624.31;;;23.43;51.96
33781;BME280;20097;50.832;19.100;2023-07-08T18:15:25;98630.50;;;23.10;53.00
33781;BME280;20097;50.832;19.100;2023-07-08T18:20:34;98637.94;;;22.91;53.46
33781;BME280;20097;50.832;19.100;2023-07-08T18:25:39;98627.50;;;22.68;53.36
33781;BME280;20097;50.832;19.100;2023-07-08T18:30:45;98622.06;;;22.47;54.58
33781;BME280;20097;50.832;19.100;2023-07-08T18:35:51;98619.97;;;22.32;54.93
33781;BME280;20097;50.832;19.100;2023-07-08T18:40:56;98621.13;;;22.08;56.38
33781;BME280;20097;50.832;19.100;2023-07-08T18:46:01;98625.59;;;21.91;56.85
33781;BME280;20097;50.832;19.100;2023-07-08T18:51:12;98636.13;;;21.74;57.07
33781;BME280;20097;50.832;19.100;2023-07-08T18:56:18;98632.75;;;21.51;58.01
33781;BME280;20097;50.832;19.100;2023-07-08T19:01:24;98642.34;;;21.40;58.77
33781;BME280;20097;50.832;19.100;2023-07-08T19:06:30;98638.72;;;21.18;59.67
33781;BME280;20097;50.832;19.100;2023-07-08T19:11:35;98648.50;;;21.06;59.67
33781;BME280;20097;50.832;19.100;2023-07-08T19:16:42;98658.53;;;20.81;60.94
33781;BME280;20097;50.832;19.100;2023-07-08T19:21:49;98655.38;;;20.61;60.78
33781;BME280;20097;50.832;19.100;2023-07-08T19:26:55;98655.97;;;20.52;61.37
33781;BME280;20097;50.832;19.100;2023-07-08T19:31:59;98663.53;;;20.36;61.91
33781;BME280;20097;50.832;19.100;2023-07-08T19:37:05;98664.75;;;20.22;63.12
33781;BME280;20097;50.832;19.100;2023-07-08T19:42:14;98670.00;;;20.11;61.79
33781;BME280;20097;50.832;19.100;2023-07-08T19:47:19;98666.13;;;19.95;63.32
33781;BME280;20097;50.832;19.100;2023-07-08T19:52:25;98670.56;;;19.83;63.99
33781;BME280;20097;50.832;19.100;2023-07-08T19:57:40;98661.75;;;19.71;67.17
33781;BME280;20097;50.832;19.100;2023-07-08T20:02:49;98666.63;;;19.56;70.85
33781;BME280;20097;50.832;19.100;2023-07-08T20:08:01;98664.53;;;19.40;69.80
33781;BME280;20097;50.832;19.100;2023-07-08T20:13:09;98662.91;;;19.21;72.91
33781;BME280;20097;50.832;19.100;2023-07-08T20:18:16;98664.66;;;19.09;72.52
33781;BME280;20097;50.832;19.100;2023-07-08T20:23:25;98673.19;;;18.86;74.22
33781;BME280;20097;50.832;19.100;2023-07-08T20:28:31;98669.59;;;18.81;74.10
33781;BME280;20097;50.832;19.100;2023-07-08T20:33:48;98670.09;;;18.71;73.53
33781;BME280;20097;50.832;19.100;2023-07-08T20:38:54;98674.81;;;18.63;77.33
33781;BME280;20097;50.832;19.100;2023-07-08T20:43:58;98667.16;;;18.55;77.64
33781;BME280;20097;50.832;19.100;2023-07-08T20:49:04;98670.94;;;18.41;77.94
33781;BME280;20097;50.832;19.100;2023-07-08T20:54:12;98672.63;;;18.22;82.88
33781;BME280;20097;50.832;19.100;2023-07-08T20:59:18;98682.25;;;18.10;82.25
33781;BME280;20097;50.832;19.100;2023-07-08T21:04:23;98674.97;;;18.06;88.57
33781;BME280;20097;50.832;19.100;2023-07-08T21:09:29;98680.06;;;18.01;88.98
33781;BME280;20097;50.832;19.100;2023-07-08T21:14:35;98680.75;;;17.90;89.65
33781;BME280;20097;50.832;19.100;2023-07-08T21:19:40;98689.09;;;17.87;91.30
33781;BME280;20097;50.832;19.100;2023-07-08T21:24:48;98677.75;;;17.73;91.04
33781;BME280;20097;50.832;19.100;2023-07-08T21:29:53;98686.34;;;17.62;90.65
33781;BME280;20097;50.832;19.100;2023-07-08T21:34:57;98682.91;;;17.55;94.65
33781;BME280;20097;50.832;19.100;2023-07-08T21:40:05;98681.50;;;17.52;96.62
33781;BME280;20097;50.832;19.100;2023-07-08T21:45:25;98692.09;;;17.46;97.24
33781;BME280;20097;50.832;19.100;2023-07-08T21:50:36;98683.97;;;17.34;97.71
33781;BME280;20097;50.832;19.100;2023-07-08T21:55:43;98684.00;;;17.21;99.19
33781;BME280;20097;50.832;19.100;2023-07-08T22:00:48;98686.03;;;17.13;99.70
33781;BME280;20097;50.832;19.100;2023-07-08T22:05:53;98685.22;;;17.25;100.00
33781;BME280;20097;50.832;19.100;2023-07-08T22:11:25;98677.66;;;17.35;99.30
33781;BME280;20097;50.832;19.100;2023-07-08T22:16:32;98679.72;;;17.27;98.24
33781;BME280;20097;50.832;19.100;2023-07-08T22:21:40;98677.69;;;17.16;97.79
33781;BME280;20097;50.832;19.100;2023-07-08T22:26:47;98681.16;;;17.10;96.55
33781;BME280;20097;50.832;19.100;2023-07-08T22:31:52;98680.97;;;17.05;94.54
33781;BME280;20097;50.832;19.100;2023-07-08T22:36:56;98686.47;;;16.97;94.99
33781;BME280;20097;50.832;19.100;2023-07-08T22:42:03;98683.63;;;16.92;94.13
33781;BME280;20097;50.832;19.100;2023-07-08T22:47:09;98685.84;;;16.88;96.47
33781;BME280;20097;50.832;19.100;2023-07-08T22:52:24;98685.66;;;16.90;94.33
33781;BME280;20097;50.832;19.100;2023-07-08T22:57:31;98685.06;;;16.88;94.04
33781;BME280;20097;50.832;19.100;2023-07-08T23:02:36;98687.28;;;16.91;89.92
33781;BME280;20097;50.832;19.100;2023-07-08T23:07:40;98687.28;;;16.84;90.68
33781;BME280;20097;50.832;19.100;2023-07-08T23:12:46;98686.06;;;16.80;92.06
33781;BME280;20097;50.832;19.100;2023-07-08T23:17:51;98682.84;;;16.78;90.47
33781;BME280;20097;50.832;19.100;2023-07-08T23:22:55;98686.06;;;16.74;93.82
33781;BME280;20097;50.832;19.100;2023-07-08T23:28:02;98686.47;;;16.71;94.67
33781;BME280;20097;50.832;19.100;2023-07-08T23:33:12;98687.28;;;16.71;91.34
33781;BME280;20097;50.832;19.100;2023-07-08T23:38:18;98680.00;;;16.67;93.97
33781;BME280;20097;50.832;19.100;2023-07-08T23:43:24;98683.22;;;16.56;92.82
33781;BME280;20097;50.832;19.100;2023-07-08T23:48:30;98679.56;;;16.50;93.08
33781;BME280;20097;50.832;19.100;2023-07-08T23:53:35;98692.94;;;16.49;95.77
33781;BME280;20097;50.832;19.100;2023-07-08T23:58:43;98696.94;;;16.38;95.50
